Check out our new PWSWeather beta!
PWSweather.com
Personal Weather Stations
Station Observations
948974
Valtournenche, AostaIT 11028

ValtournencheAostaIT 11028

Lat: 45.877222, Lon: 7.625556

Elevation: 5085.3018

Station Type: PCE-FWS 20

http://www.cdso.it

High Low Average
Temperature 62.2°F16.8°C 44.1°F6.7°C 51.3°F10.7°C
Dew Point 46.3°F7.9°C 27.5°F-2.5°C 39.0°F3.9°C
Winds 9.0 mph 14.5 kmh 1.0 mph 1.6 kmh 3.0 mph NW4.8 kmh NW
Wind Gusts 22.0 mph35.4 kmh 2.0 mph3.2 kmh 6.0 mph9.7 kmh
Humidity 99% 28% 68%
Pressure 29.87 in1011.5 mb 29.60 in1002.4 mb -
Precipitation 0.01 in0.3 mm - -
Hour Temp Dew Point Humidity Winds Wind Gusts Pressure Precip Precip Rate Daily Precip Total
12:10 AM 46.2°F7.9°C 45.4°F7.4°C 97% 1.0 mph NW1.6 kmh NW 2.0 mph3.2 kmh 29.82 in1009.8 mb 0.00 in0.0 mm 0.00 in0.0 mm 0.00 in0.0 mm
12:31 AM 46.4°F8.0°C 46.1°F7.8°C 99% 1.0 mph NW1.6 kmh NW 2.0 mph3.2 kmh 29.82 in1009.8 mb 0.00 in0.0 mm 0.00 in0.0 mm 0.00 in0.0 mm
12:52 AM 46.2°F7.9°C 45.4°F7.4°C 97% 1.0 mph NW1.6 kmh NW 2.0 mph3.2 kmh 29.81 in1009.5 mb 0.00 in0.0 mm 0.00 in0.0 mm 0.00 in0.0 mm
01:14 AM 46.4°F8.0°C 46.1°F7.8°C 99% 2.0 mph NW3.2 kmh NW 3.0 mph4.8 kmh 29.81 in1009.5 mb 0.00 in0.0 mm 0.00 in0.0 mm 0.00 in0.0 mm
01:35 AM 46.2°F7.9°C 45.4°F7.4°C 97% 2.0 mph NW3.2 kmh NW 3.0 mph4.8 kmh 29.80 in1009.1 mb 0.00 in0.0 mm 0.00 in0.0 mm 0.00 in0.0 mm
01:56 AM 46.2°F7.9°C 45.4°F7.4°C 97% 2.0 mph NW3.2 kmh NW 3.0 mph4.8 kmh 29.80 in1009.1 mb 0.00 in0.0 mm 0.00 in0.0 mm 0.00 in0.0 mm
02:18 AM 46.6°F8.1°C 46.3°F7.9°C 99% 2.0 mph NW3.2 kmh NW 2.0 mph3.2 kmh 29.78 in1008.5 mb 0.00 in0.0 mm 0.00 in0.0 mm 0.00 in0.0 mm
02:39 AM 46.6°F8.1°C 46.3°F7.9°C 99% 2.0 mph NW3.2 kmh NW 2.0 mph3.2 kmh 29.76 in1007.8 mb 0.00 in0.0 mm 0.00 in0.0 mm 0.00 in0.0 mm
03:00 AM 46.2°F7.9°C 45.4°F7.4°C 97% 2.0 mph NW3.2 kmh NW 4.0 mph6.4 kmh 29.76 in1007.8 mb 0.00 in0.0 mm 0.00 in0.0 mm 0.00 in0.0 mm
03:22 AM 46.4°F8.0°C 46.1°F7.8°C 99% 2.0 mph NW3.2 kmh NW 2.0 mph3.2 kmh 29.74 in1007.1 mb 0.00 in0.0 mm 0.00 in0.0 mm 0.00 in0.0 mm
03:43 AM 45.5°F7.5°C 44.7°F7.1°C 97% 4.0 mph NW6.4 kmh NW 5.0 mph8.0 kmh 29.75 in1007.5 mb 0.00 in0.0 mm 0.00 in0.0 mm 0.00 in0.0 mm
04:04 AM 45.5°F7.5°C 44.7°F7.1°C 97% 2.0 mph NW3.2 kmh NW 4.0 mph6.4 kmh 29.74 in1007.1 mb 0.00 in0.0 mm 0.00 in0.0 mm 0.00 in0.0 mm
04:25 AM 45.7°F7.6°C 44.9°F7.2°C 97% 2.0 mph WNW3.2 kmh WNW 4.0 mph6.4 kmh 29.72 in1006.4 mb 0.00 in0.0 mm 0.00 in0.0 mm 0.00 in0.0 mm
04:46 AM 45.1°F7.3°C 44.3°F6.8°C 97% 1.0 mph NW1.6 kmh NW 2.0 mph3.2 kmh 29.73 in1006.8 mb 0.00 in0.0 mm 0.00 in0.0 mm 0.00 in0.0 mm
05:07 AM 45.0°F7.2°C 44.2°F6.8°C 97% 2.0 mph NW3.2 kmh NW 4.0 mph6.4 kmh 29.73 in1006.8 mb 0.00 in0.0 mm 0.00 in0.0 mm 0.00 in0.0 mm
05:28 AM 44.6°F7.0°C 43.8°F6.6°C 97% 2.0 mph NW3.2 kmh NW 3.0 mph4.8 kmh 29.74 in1007.1 mb 0.00 in0.0 mm 0.00 in0.0 mm 0.00 in0.0 mm
05:49 AM 44.8°F7.1°C 44.0°F6.7°C 97% 3.0 mph NW4.8 kmh NW 4.0 mph6.4 kmh 29.74 in1007.1 mb 0.00 in0.0 mm 0.00 in0.0 mm 0.00 in0.0 mm
06:10 AM 44.2°F6.8°C 43.7°F6.5°C 98% 4.0 mph NW6.4 kmh NW 6.0 mph9.7 kmh 29.75 in1007.5 mb 0.00 in0.0 mm 0.00 in0.0 mm 0.00 in0.0 mm
06:31 AM 44.1°F6.7°C 43.3°F6.3°C 97% 2.0 mph NW3.2 kmh NW 3.0 mph4.8 kmh 29.77 in1008.1 mb 0.00 in0.0 mm 0.00 in0.0 mm 0.00 in0.0 mm
06:52 AM 44.6°F7.0°C 43.5°F6.4°C 96% 1.0 mph NW1.6 kmh NW 2.0 mph3.2 kmh 29.76 in1007.8 mb 0.00 in0.0 mm 0.00 in0.0 mm 0.00 in0.0 mm
07:13 AM 45.3°F7.4°C 43.7°F6.5°C 94% 2.0 mph NW3.2 kmh NW 2.0 mph3.2 kmh 29.76 in1007.8 mb 0.00 in0.0 mm 0.00 in0.0 mm 0.00 in0.0 mm
07:34 AM 45.7°F7.6°C 44.1°F6.7°C 94% 2.0 mph NW3.2 kmh NW 2.0 mph3.2 kmh 29.76 in1007.8 mb 0.00 in0.0 mm 0.00 in0.0 mm 0.00 in0.0 mm
07:55 AM 45.5°F7.5°C 43.6°F6.4°C 93% 2.0 mph NW3.2 kmh NW 2.0 mph3.2 kmh 29.76 in1007.8 mb 0.00 in0.0 mm 0.00 in0.0 mm 0.00 in0.0 mm
08:16 AM 46.0°F7.8°C 43.8°F6.6°C 92% 2.0 mph NW3.2 kmh NW 2.0 mph3.2 kmh 29.75 in1007.5 mb 0.00 in0.0 mm 0.00 in0.0 mm 0.00 in0.0 mm
08:37 AM 46.9°F8.3°C 43.6°F6.4°C 88% 2.0 mph NW3.2 kmh NW 3.0 mph4.8 kmh 29.76 in1007.8 mb 0.00 in0.0 mm 0.00 in0.0 mm 0.00 in0.0 mm
08:58 AM 53.2°F11.8°C 45.9°F7.7°C 76% 2.0 mph NW3.2 kmh NW 3.0 mph4.8 kmh 29.69 in1005.4 mb 0.00 in0.0 mm 0.00 in0.0 mm 0.00 in0.0 mm
09:21 AM 55.4°F13.0°C 43.1°F6.2°C 64% 1.0 mph NW1.6 kmh NW 2.0 mph3.2 kmh 29.67 in1004.7 mb 0.00 in0.0 mm 0.00 in0.0 mm 0.00 in0.0 mm
09:42 AM 55.7°F13.2°C 41.7°F5.4°C 59% 2.0 mph NW3.2 kmh NW 4.0 mph6.4 kmh 29.66 in1004.4 mb 0.01 in0.3 mm 0.03 in0.8 mm 0.01 in0.3 mm
10:03 AM 54.1°F12.3°C 40.4°F4.7°C 60% 3.0 mph NW4.8 kmh NW 5.0 mph8.0 kmh 29.68 in1005.1 mb 0.01 in0.3 mm 0.00 in0.0 mm 0.01 in0.3 mm
10:21 AM 54.3°F12.4°C 40.6°F4.8°C 60% 4.0 mph NW6.4 kmh NW 7.0 mph11.3 kmh 29.68 in1005.1 mb 0.01 in0.3 mm 0.00 in0.0 mm 0.01 in0.3 mm
10:42 AM 55.1°F12.8°C 41.3°F5.2°C 60% 3.0 mph NW4.8 kmh NW 7.0 mph11.3 kmh 29.68 in1005.1 mb 0.00 in0.0 mm 0.00 in0.0 mm 0.01 in0.3 mm
11:21 AM 59.6°F15.3°C 39.5°F4.2°C 47% 2.0 mph NW3.2 kmh NW 4.0 mph6.4 kmh 29.63 in1003.4 mb 0.00 in0.0 mm 0.00 in0.0 mm 0.01 in0.3 mm
11:42 AM 59.6°F15.3°C 37.5°F3.1°C 44% 2.0 mph NW3.2 kmh NW 5.0 mph8.0 kmh 29.62 in1003.0 mb 0.00 in0.0 mm 0.00 in0.0 mm 0.01 in0.3 mm
12:03 PM 60.7°F15.9°C 30.6°F-0.8°C 32% 9.0 mph NW14.5 kmh NW 18.0 mph29.0 kmh 29.61 in1002.7 mb 0.00 in0.0 mm 0.00 in0.0 mm 0.01 in0.3 mm
12:21 PM 61.3°F16.3°C 28.4°F-2.0°C 28% 9.0 mph NW14.5 kmh NW 19.0 mph30.6 kmh 29.60 in1002.4 mb 0.00 in0.0 mm 0.00 in0.0 mm 0.01 in0.3 mm
12:42 PM 60.5°F15.8°C 27.5°F-2.5°C 28% 9.0 mph NW14.5 kmh NW 15.0 mph24.1 kmh 29.62 in1003.0 mb 0.00 in0.0 mm 0.00 in0.0 mm 0.01 in0.3 mm
01:03 PM 59.9°F15.5°C 30.6°F-0.8°C 33% 5.0 mph NW8.0 kmh NW 11.0 mph17.7 kmh 29.63 in1003.4 mb 0.00 in0.0 mm 0.00 in0.0 mm 0.01 in0.3 mm
01:21 PM 60.4°F15.8°C 31.8°F-0.1°C 34% 3.0 mph WNW4.8 kmh WNW 8.0 mph12.9 kmh 29.62 in1003.0 mb 0.00 in0.0 mm 0.00 in0.0 mm 0.01 in0.3 mm
01:42 PM 59.0°F15.0°C 32.5°F0.3°C 37% 7.0 mph NW11.3 kmh NW 15.0 mph24.1 kmh 29.66 in1004.4 mb 0.00 in0.0 mm 0.00 in0.0 mm 0.01 in0.3 mm
02:03 PM 57.9°F14.4°C 36.0°F2.2°C 44% 7.0 mph NW11.3 kmh NW 16.0 mph25.7 kmh 29.67 in1004.7 mb 0.00 in0.0 mm 0.00 in0.0 mm 0.01 in0.3 mm
02:21 PM 62.0°F16.7°C 34.2°F1.2°C 35% 2.0 mph NW3.2 kmh NW 8.0 mph12.9 kmh 29.63 in1003.4 mb 0.00 in0.0 mm 0.00 in0.0 mm 0.01 in0.3 mm
02:42 PM 60.6°F15.9°C 31.7°F-0.2°C 34% 8.0 mph NW12.9 kmh NW 17.0 mph27.4 kmh 29.64 in1003.7 mb 0.00 in0.0 mm 0.00 in0.0 mm 0.01 in0.3 mm
03:03 PM 61.0°F16.1°C 32.4°F0.2°C 34% 5.0 mph NW8.0 kmh NW 10.0 mph16.1 kmh 29.63 in1003.4 mb 0.00 in0.0 mm 0.00 in0.0 mm 0.01 in0.3 mm
03:21 PM 62.2°F16.8°C 30.8°F-0.7°C 30% 5.0 mph NW8.0 kmh NW 11.0 mph17.7 kmh 29.61 in1002.7 mb 0.00 in0.0 mm 0.00 in0.0 mm 0.01 in0.3 mm
03:42 PM 61.0°F16.1°C 31.8°F-0.1°C 33% 8.0 mph NW12.9 kmh NW 22.0 mph35.4 kmh 29.63 in1003.4 mb 0.00 in0.0 mm 0.00 in0.0 mm 0.01 in0.3 mm
04:03 PM 59.5°F15.3°C 33.7°F0.9°C 38% 3.0 mph NW4.8 kmh NW 10.0 mph16.1 kmh 29.66 in1004.4 mb 0.00 in0.0 mm 0.00 in0.0 mm 0.01 in0.3 mm
04:21 PM 57.9°F14.4°C 34.1°F1.2°C 40% 3.0 mph NW4.8 kmh NW 4.0 mph6.4 kmh 29.68 in1005.1 mb 0.00 in0.0 mm 0.00 in0.0 mm 0.01 in0.3 mm
04:42 PM 56.7°F13.7°C 36.1°F2.3°C 46% 2.0 mph NW3.2 kmh NW 5.0 mph8.0 kmh 29.69 in1005.4 mb 0.00 in0.0 mm 0.00 in0.0 mm 0.01 in0.3 mm
05:21 PM 54.0°F12.2°C 36.0°F2.2°C 50% 2.0 mph NW3.2 kmh NW 4.0 mph6.4 kmh 29.72 in1006.4 mb 0.00 in0.0 mm 0.00 in0.0 mm 0.01 in0.3 mm
05:42 PM 52.8°F11.6°C 35.8°F2.1°C 52% 2.0 mph NW3.2 kmh NW 3.0 mph4.8 kmh 29.74 in1007.1 mb 0.00 in0.0 mm 0.00 in0.0 mm 0.01 in0.3 mm
06:03 PM 51.8°F11.0°C 35.3°F1.8°C 53% 3.0 mph NW4.8 kmh NW 8.0 mph12.9 kmh 29.75 in1007.5 mb 0.00 in0.0 mm 0.00 in0.0 mm 0.01 in0.3 mm
06:21 PM 51.6°F10.9°C 35.6°F2.0°C 54% 2.0 mph NW3.2 kmh NW 4.0 mph6.4 kmh 29.76 in1007.8 mb 0.00 in0.0 mm 0.00 in0.0 mm 0.01 in0.3 mm
06:42 PM 51.5°F10.8°C 35.0°F1.7°C 53% 2.0 mph NW3.2 kmh NW 4.0 mph6.4 kmh 29.77 in1008.1 mb 0.00 in0.0 mm 0.00 in0.0 mm 0.01 in0.3 mm
07:03 PM 50.1°F10.1°C 36.0°F2.2°C 58% 2.0 mph NW3.2 kmh NW 4.0 mph6.4 kmh 29.80 in1009.1 mb 0.00 in0.0 mm 0.00 in0.0 mm 0.01 in0.3 mm
07:21 PM 49.4°F9.7°C 35.9°F2.2°C 60% 3.0 mph NW4.8 kmh NW 5.0 mph8.0 kmh 29.80 in1009.1 mb 0.00 in0.0 mm 0.00 in0.0 mm 0.01 in0.3 mm
07:42 PM 49.8°F9.9°C 36.0°F2.2°C 59% 2.0 mph NW3.2 kmh NW 4.0 mph6.4 kmh 29.79 in1008.8 mb 0.00 in0.0 mm 0.00 in0.0 mm 0.01 in0.3 mm
08:03 PM 49.4°F9.7°C 36.3°F2.4°C 61% 2.0 mph NW3.2 kmh NW 5.0 mph8.0 kmh 29.80 in1009.1 mb 0.00 in0.0 mm 0.00 in0.0 mm 0.01 in0.3 mm
08:21 PM 49.9°F9.9°C 35.2°F1.8°C 57% 3.0 mph NW4.8 kmh NW 5.0 mph8.0 kmh 29.80 in1009.1 mb 0.00 in0.0 mm 0.00 in0.0 mm 0.01 in0.3 mm
08:42 PM 49.8°F9.9°C 35.5°F1.9°C 58% 3.0 mph NW4.8 kmh NW 7.0 mph11.3 kmh 29.81 in1009.5 mb 0.00 in0.0 mm 0.00 in0.0 mm 0.01 in0.3 mm
09:03 PM 50.0°F10.0°C 34.8°F1.6°C 56% 1.0 mph NW1.6 kmh NW 4.0 mph6.4 kmh 29.82 in1009.8 mb 0.00 in0.0 mm 0.00 in0.0 mm 0.01 in0.3 mm
09:21 PM 49.2°F9.6°C 36.2°F2.3°C 61% 3.0 mph NW4.8 kmh NW 4.0 mph6.4 kmh 29.83 in1010.2 mb 0.00 in0.0 mm 0.00 in0.0 mm 0.01 in0.3 mm
09:42 PM 48.3°F9.1°C 36.2°F2.3°C 63% 1.0 mph NW1.6 kmh NW 4.0 mph6.4 kmh 29.85 in1010.8 mb 0.00 in0.0 mm 0.00 in0.0 mm 0.01 in0.3 mm
10:03 PM 47.0°F8.3°C 36.0°F2.2°C 65% 3.0 mph NW4.8 kmh NW 6.0 mph9.7 kmh 29.86 in1011.2 mb 0.00 in0.0 mm 0.00 in0.0 mm 0.01 in0.3 mm
10:21 PM 46.1°F7.8°C 33.7°F0.9°C 62% 3.0 mph NW4.8 kmh NW 6.0 mph9.7 kmh 29.87 in1011.5 mb 0.00 in0.0 mm 0.00 in0.0 mm 0.01 in0.3 mm
10:42 PM 45.9°F7.7°C 33.3°F0.7°C 61% 3.0 mph NW4.8 kmh NW 6.0 mph9.7 kmh 29.87 in1011.5 mb 0.00 in0.0 mm 0.00 in0.0 mm 0.01 in0.3 mm
10:58 PM 46.9°F8.3°C 30.2°F-1.0°C 52% 2.0 mph NW3.2 kmh NW 2.0 mph3.2 kmh 29.86 in1011.2 mb 0.00 in0.0 mm 0.00 in0.0 mm 0.01 in0.3 mm
11:19 PM 47.8°F8.8°C 27.5°F-2.5°C 45% 2.0 mph NW3.2 kmh NW 2.0 mph3.2 kmh 29.85 in1010.8 mb 0.00 in0.0 mm 0.00 in0.0 mm 0.01 in0.3 mm
11:40 PM 46.2°F7.9°C 26.6°F-3.0°C 46% 2.0 mph NW3.2 kmh NW 2.0 mph3.2 kmh 29.88 in1011.9 mb 0.00 in0.0 mm 0.00 in0.0 mm 0.01 in0.3 mm